Main page
METAR-TAF:

METAR-TAF

Airports :

City of Derry Airport

Derry, Northern Ireland

latitude: 55-03N, longitude: 007-09W, elevation: 9 m

Current weather observation

The report was made 21 minutes ago, at 18:50 UTC
Wind 15 kt from the West
Temperature 8°C
Humidity 81%
Pressure 1018 hPa
Visibility: 9000 m
Few clouds at a height of 1500 ft
Broken clouds at a height of 3800 ft
light rain showers

METAR: EGAE 291850Z 26015KT 9000 -SHRA FEW015 BKN038 08/05 Q1018

Time: 19:11 (19:11 UTC)

Forecast

The report was made 2 hours and 14 minutes ago, at 16:57 UTC
Forecast valid from 29 at 18 UTC to 29 at 21 UTC
Wind 15 kt from the West
Visibility 10 km or more
Few clouds at a height of 2000 ft
Scattered clouds at a height of 3000 ft
Temporary
from 29 at 18 UTC to 29 at 21 UTC
Wind 18 kt from the West with gusts up to 30 kt
Probability 30% :
Temporary
from 29 at 18 UTC to 29 at 21 UTC
Visibility: 8000 m
rain showers

TAF: EGAE 291657Z 2918/2921 27015KT 9999 FEW020 SCT030 TEMPO 2918/2921 28018G30KT PROB30 TEMPO 2918/2921 8000 SHRA

Weather observations and forecasts of more than 4000 airports (METAR and TAF reports).

The available stations are represented by yellow and red dots on the map.

Hover mouse over dot to see the name of the station.

Then click to see weather observations and forecasts.

To change the map : click on the green buttons with a black cross to zoom in, on the green button with a dash to zoom out, or on the green arrows for adjacent maps.


METAR-TAF: